Map

Track Data

SID SEASON NUMBER BASIN SUBBASIN NAME ISO_TIME NATURE LAT LON WMO_WIND WMO_PRES WMO_AGENCY TRACK_TYPE DIST2LAND LANDFALL IFLAG USA_AGENCY USA_ATCF_ID USA_LAT USA_LON USA_RECORD USA_STATUS USA_WIND USA_PRES USA_SSHS USA_R34_NE USA_R34_SE USA_R34_SW USA_R34_NW USA_R50_NE USA_R50_SE USA_R50_SW USA_R50_NW USA_R64_NE USA_R64_SE USA_R64_SW USA_R64_NW USA_POCI USA_ROCI USA_RMW USA_EYE TOKYO_LAT TOKYO_LON TOKYO_GRADE TOKYO_WIND TOKYO_PRES TOKYO_R50_DIR TOKYO_R50_LONG TOKYO_R50_SHORT TOKYO_R30_DIR TOKYO_R30_LONG TOKYO_R30_SHORT TOKYO_LAND CMA_LAT CMA_LON CMA_CAT CMA_WIND CMA_PRES HKO_LAT HKO_LON HKO_CAT HKO_WIND HKO_PRES NEWDELHI_LAT NEWDELHI_LON NEWDELHI_GRADE NEWDELHI_WIND NEWDELHI_PRES NEWDELHI_CI NEWDELHI_DP NEWDELHI_POCI REUNION_LAT REUNION_LON REUNION_TYPE REUNION_WIND REUNION_PRES REUNION_TNUM REUNION_CI REUNION_RMW REUNION_R34_NE REUNION_R34_SE REUNION_R34_SW REUNION_R34_NW REUNION_R50_NE REUNION_R50_SE REUNION_R50_SW REUNION_R50_NW REUNION_R64_NE REUNION_R64_SE REUNION_R64_SW REUNION_R64_NW BOM_LAT BOM_LON BOM_TYPE BOM_WIND BOM_PRES BOM_TNUM BOM_CI BOM_RMW BOM_R34_NE BOM_R34_SE BOM_R34_SW BOM_R34_NW BOM_R50_NE BOM_R50_SE BOM_R50_SW BOM_R50_NW BOM_R64_NE BOM_R64_SE BOM_R64_SW BOM_R64_NW BOM_ROCI BOM_POCI BOM_EYE BOM_POS_METHOD BOM_PRES_METHOD NADI_LAT NADI_LON NADI_CAT NADI_WIND NADI_PRES WELLINGTON_LAT WELLINGTON_LON WELLINGTON_WIND WELLINGTON_PRES DS824_LAT DS824_LON DS824_STAGE DS824_WIND DS824_PRES TD9636_LAT TD9636_LON TD9636_STAGE TD9636_WIND TD9636_PRES TD9635_LAT TD9635_LON TD9635_WIND TD9635_PRES TD9635_ROCI NEUMANN_LAT NEUMANN_LON NEUMANN_CLASS NEUMANN_WIND NEUMANN_PRES MLC_LAT MLC_LON MLC_CLASS MLC_WIND MLC_PRES USA_GUST BOM_GUST BOM_GUST_PER REUNION_GUST REUNION_GUST_PER USA_SEAHGT USA_SEARAD_NE USA_SEARAD_SE USA_SEARAD_SW USA_SEARAD_NW STORM_SPEED STORM_DIR
1966254N11265 1966 74 EP MM IONE 1966-09-11 00:00:00 TS 11.2000 -95.2000 25 hurdat_epa main 492 474 O________OO___ hurdat_epa EP091966 11.2000 -95.2000 TD 25 -1 11.2000 -95.2000 TC 25 11.2000 -95.2000 1 9 311
1966254N11265 1966 74 EP MM IONE 1966-09-11 03:00:00 TS 11.5021 -95.5506 main 471 432 P________PP___ EP091966 11.4951 -95.5474 TD 25 -1 11.4951 -95.5474 TC 25 11.5301 -95.5632 1 9 311
1966254N11265 1966 74 EP MM IONE 1966-09-11 06:00:00 TS 11.8096 -95.9043 25 hurdat_epa main 432 394 O________OP___ hurdat_epa EP091966 11.8000 -95.9000 TD 25 -1 11.8000 -95.9000 TC 25 11.8481 -95.9216 1 9 312
1966254N11265 1966 74 EP MM IONE 1966-09-11 09:00:00 TS 12.1204 -96.2598 main 393 358 P________PP___ EP091966 12.1150 -96.2575 TD 25 -1 12.1150 -96.2575 TC 25 12.1419 -96.2691 1 9 311
1966254N11265 1966 74 EP MM IONE 1966-09-11 12:00:00 TS 12.4000 -96.6000 25 hurdat_epa main 358 336 O________OO___ hurdat_epa EP091966 12.4000 -96.6000 TD 25 -1 12.4000 -96.6000 TC 25 12.4000 -96.6000 1 8 309
1966254N11265 1966 74 EP MM IONE 1966-09-11 15:00:00 TS 12.6209 -96.9025 main 337 318 P________PP___ EP091966 12.6224 -96.9001 TD 25 -1 12.6224 -96.9001 TC 25 12.6146 -96.9123 1 7 304
1966254N11265 1966 74 EP MM IONE 1966-09-11 18:00:00 TS 12.7989 -97.2041 25 hurdat_epa main 320 311 O________OP___ hurdat_epa EP091966 12.8000 -97.2000 TD 25 -1 12.8000 -97.2000 TC 25 12.7945 -97.2206 1 7 299
1966254N11265 1966 74 EP MM IONE 1966-09-11 21:00:00 TS 12.9563 -97.5308 main 306 306 P________PP___ EP091966 12.9574 -97.5276 TD 25 -1 12.9574 -97.5276 TC 25 12.9521 -97.5435 1 7 294
1966254N11265 1966 74 EP MM IONE 1966-09-12 00:00:00 TS 13.1000 -97.9000 25 hurdat_epa main 312 312 O________OO___ hurdat_epa EP091966 13.1000 -97.9000 TD 25 -1 13.1000 -97.9000 TC 25 13.1000 -97.9000 1 8 291
1966254N11265 1966 74 EP MM IONE 1966-09-12 03:00:00 TS 13.2506 -98.3325 main 307 303 P________PP___ EP091966 13.2500 -98.3350 TD 25 -1 13.2500 -98.3350 TC 25 13.2533 -98.3223 1 9 289
1966254N11265 1966 74 EP MM IONE 1966-09-12 06:00:00 TS 13.4000 -98.7955 25 hurdat_epa main 310 308 O________OP___ hurdat_epa EP091966 13.4000 -98.8000 TD 25 -1 13.4000 -98.8000 TC 25 13.4002 -98.7777 1 9 288
1966254N11265 1966 74 EP MM IONE 1966-09-12 09:00:00 TS 13.5494 -99.2549 main 322 310 P________PP___ EP091966 13.5500 -99.2575 TD 25 -1 13.5500 -99.2575 TC 25 13.5470 -99.2442 1 9 289
1966254N11265 1966 74 EP MM IONE 1966-09-12 12:00:00 TS 13.7000 -99.7000 25 hurdat_epa main 314 312 O________OO___ hurdat_epa EP091966 13.7000 -99.7000 TD 25 -1 13.7000 -99.7000 TC 25 13.7000 -99.7000 2 9 289
1966254N11265 1966 74 EP MM IONE 1966-09-12 15:00:00 TS 13.8426 -100.114 main 322 311 P________PP___ EP091966 13.8424 -100.108 TD 35 0 13.8424 -100.108 TC 35 13.8434 -100.139 2 8 291
1966254N11265 1966 74 EP MM IONE 1966-09-12 18:00:00 TS 13.9995 -100.512 45 hurdat_epa main 314 306 O________OP___ hurdat_epa EP091966 14.0000 -100.500 TS 45 0 14.0000 -100.500 TC 45 13.9975 -100.560 2 9 293
1966254N11265 1966 74 EP MM IONE 1966-09-12 21:00:00 TS 14.1776 -100.922 main 307 303 P________PP___ EP091966 14.1775 -100.915 TS 45 0 14.1775 -100.915 TC 45 14.1778 -100.952 2 9 298
1966254N11265 1966 74 EP MM IONE 1966-09-13 00:00:00 TS 14.4000 -101.300 45 hurdat_epa main 309 292 O________OO___ hurdat_epa EP091966 14.4000 -101.300 TS 45 0 14.4000 -101.300 TC 45 14.4000 -101.300 2 8 306
1966254N11265 1966 74 EP MM IONE 1966-09-13 03:00:00 TS 14.6769 -101.624 main 292 271 P________PP___ EP091966 14.6774 -101.630 TS 45 0 14.6774 -101.630 TC 45 14.6747 -101.598 2 8 316
1966254N11265 1966 74 EP MM IONE 1966-09-13 06:00:00 TS 14.9985 -101.891 45 hurdat_epa main 271 247 O________OP___ hurdat_epa EP091966 15.0000 -101.900 TS 45 0 15.0000 -101.900 TC 45 14.9925 -101.854 2 8 325
1966254N11265 1966 74 EP MM IONE 1966-09-13 09:00:00 TS 15.3438 -102.109 main 247 220 P________PP___ EP091966 15.3450 -102.115 TS 45 0 15.3450 -102.115 TC 45 15.3391 -102.084 2 8 331
1966254N11265 1966 74 EP MM IONE 1966-09-13 12:00:00 TS 15.7000 -102.300 45 hurdat_epa main 220 O________OO___ hurdat_epa EP091966 15.7000 -102.300 TS 45 0 15.7000 -102.300 TC 45 15.7000 -102.300 6 8 332

About IBTrACS Database

This database is a web-friendly format of International Best Track Archive for Climate Stewardship (IBTrACS), a global best track data archive curated by NOAA dating back to 1842.

Updated: 2021-10-21